createdAt,value
2018-04-25T00:02:22.957Z,64.00
2018-04-25T00:04:50.416Z,63.00
2018-04-25T00:07:17.901Z,62.90
2018-04-25T00:09:45.381Z,63.30
2018-04-25T00:12:13.348Z,63.00
2018-04-25T00:14:40.893Z,63.00
2018-04-25T00:17:08.461Z,63.50
2018-04-25T00:19:35.946Z,63.50
2018-04-25T00:22:03.807Z,63.20
2018-04-25T00:24:31.384Z,63.20
2018-04-25T00:26:58.840Z,63.30
2018-04-25T00:29:26.724Z,63.20
2018-04-25T00:31:54.627Z,63.60
2018-04-25T00:34:22.101Z,63.70
2018-04-25T00:36:49.659Z,63.60
2018-04-25T00:39:17.614Z,63.70
2018-04-25T00:41:45.134Z,63.60
2018-04-25T00:44:12.697Z,63.60
2018-04-25T00:46:40.373Z,63.70
2018-04-25T00:49:07.805Z,63.70
2018-04-25T00:51:35.298Z,64.00
2018-04-25T00:54:02.863Z,64.10
2018-04-25T00:56:30.333Z,64.20
2018-04-25T00:58:58.200Z,64.10
2018-04-25T01:01:26.113Z,64.20
2018-04-25T01:03:53.578Z,64.20
2018-04-25T01:06:21.027Z,64.20
2018-04-25T01:08:48.511Z,64.50
2018-04-25T01:11:16.015Z,64.40
2018-04-25T01:13:43.505Z,64.40
2018-04-25T01:16:11.367Z,64.60
2018-04-25T01:18:39.312Z,64.70
2018-04-25T01:21:06.876Z,64.70
2018-04-25T01:23:34.343Z,64.90
2018-04-25T01:26:06.852Z,65.40
2018-04-25T01:41:54.423Z,66.20
2018-04-25T01:44:21.971Z,66.10
2018-04-25T01:46:51.908Z,66.30
2018-04-25T01:49:23.981Z,66.30
2018-04-25T01:52:03.228Z,66.40
2018-04-25T01:54:43.051Z,66.40
2018-04-25T01:57:22.725Z,66.40
2018-04-25T02:00:02.606Z,66.70
2018-04-25T02:02:29.675Z,66.70
2018-04-25T02:04:57.140Z,66.80
2018-04-25T02:07:24.593Z,67.00
2018-04-25T02:09:52.071Z,66.90
2018-04-25T02:12:19.536Z,67.00
2018-04-25T02:14:47.050Z,66.80
2018-04-25T02:17:14.512Z,66.90
2018-04-25T02:19:41.981Z,67.00
2018-04-25T02:22:09.455Z,67.10
2018-04-25T02:24:36.932Z,67.00
2018-04-25T02:27:04.508Z,67.00
2018-04-25T02:29:31.960Z,67.20
2018-04-25T02:31:59.459Z,67.30
2018-04-25T02:34:27.416Z,67.60
2018-04-25T02:36:54.877Z,67.60
2018-04-25T02:39:22.396Z,67.80
2018-04-25T02:41:49.895Z,68.10
2018-04-25T02:44:17.358Z,68.10
2018-04-25T02:46:44.834Z,68.30
2018-04-25T02:49:12.689Z,68.00
2018-04-25T02:51:40.246Z,68.00
2018-04-25T02:54:07.713Z,67.80
2018-04-25T02:56:35.192Z,67.90
2018-04-25T02:59:02.654Z,67.90
2018-04-25T03:01:30.518Z,68.30
2018-04-25T03:03:58.033Z,68.30
2018-04-25T03:06:25.587Z,68.20
2018-04-25T03:08:53.046Z,68.40
2018-04-25T03:11:20.508Z,68.40
2018-04-25T03:13:48.058Z,68.70
2018-04-25T03:16:15.579Z,68.70
2018-04-25T03:18:43.040Z,68.70
2018-04-25T03:21:10.497Z,68.80
2018-04-25T03:23:37.976Z,68.60
2018-04-25T03:26:05.443Z,68.50
2018-04-25T03:28:33.186Z,68.60
2018-04-25T03:31:00.655Z,68.40
2018-04-25T03:33:28.117Z,68.50
2018-04-25T03:35:55.576Z,68.70
2018-04-25T03:38:23.049Z,68.60
2018-04-25T03:40:50.526Z,68.80
2018-04-25T03:43:18.184Z,68.90
2018-04-25T03:45:45.664Z,69.10
2018-04-25T03:48:13.543Z,69.20
2018-04-25T03:50:41.505Z,69.40
2018-04-25T03:53:09.423Z,69.50
2018-04-25T03:55:36.924Z,69.60
2018-04-25T03:58:04.394Z,69.50
2018-04-25T04:00:31.865Z,69.60
2018-04-25T04:02:59.412Z,69.90
2018-04-25T04:05:26.937Z,70.30
2018-04-25T04:07:54.440Z,70.40
2018-04-25T04:10:21.910Z,70.50
2018-04-25T04:12:49.376Z,70.70
2018-04-25T04:15:16.840Z,70.40
2018-04-25T04:17:44.720Z,70.40
2018-04-25T04:20:12.587Z,70.30
2018-04-25T04:22:40.459Z,70.40
2018-04-25T04:25:08.313Z,70.20
2018-04-25T04:27:35.880Z,70.20
2018-04-25T04:30:03.412Z,70.40
2018-04-25T04:32:30.901Z,70.50
2018-04-25T04:34:58.359Z,70.50
2018-04-25T04:37:25.915Z,70.50
2018-04-25T04:39:53.378Z,70.40
2018-04-25T04:42:20.921Z,70.60
2018-04-25T04:44:49.535Z,70.70
2018-04-25T04:47:17.016Z,70.70
2018-04-25T04:49:44.887Z,70.70
2018-04-25T04:52:12.836Z,70.90
2018-04-25T04:54:40.426Z,70.90
2018-04-25T04:57:07.899Z,70.80
2018-04-25T04:59:35.850Z,71.40
2018-04-25T05:02:03.629Z,71.10
2018-04-25T05:04:31.101Z,71.10
2018-04-25T05:06:58.964Z,70.80
2018-04-25T05:09:26.922Z,71.00
2018-04-25T05:11:54.488Z,71.00
2018-04-25T05:14:22.054Z,70.90
2018-04-25T05:16:49.519Z,70.80
2018-04-25T05:19:17.037Z,70.60
2018-04-25T05:21:45.492Z,70.10
2018-04-25T05:24:13.465Z,70.50
2018-04-25T05:26:41.313Z,69.90
2018-04-25T05:29:08.783Z,69.80
2018-04-25T05:31:36.696Z,69.90
2018-04-25T05:34:04.178Z,70.00
2018-04-25T05:36:31.644Z,70.60
2018-04-25T05:38:59.111Z,70.20
2018-04-25T05:41:26.588Z,70.10
2018-04-25T05:43:54.085Z,69.50
2018-04-25T05:46:21.939Z,69.00
2018-04-25T05:48:49.821Z,68.90
2018-04-25T05:51:17.676Z,69.30
2018-04-25T05:53:45.386Z,69.20
2018-04-25T05:56:12.872Z,69.80
2018-04-25T05:58:40.468Z,70.10
2018-04-25T06:01:08.329Z,70.00
2018-04-25T06:03:35.885Z,70.00
2018-04-25T06:06:03.355Z,70.00
2018-04-25T06:08:30.852Z,69.80
2018-04-25T06:10:58.717Z,69.60
2018-04-25T06:13:26.575Z,69.40
2018-04-25T06:15:54.036Z,69.40
2018-04-25T06:18:21.503Z,69.30
2018-04-25T06:20:49.054Z,69.40
2018-04-25T06:23:16.521Z,69.40
2018-04-25T06:25:43.971Z,69.20
2018-04-25T06:28:11.457Z,69.30
2018-04-25T06:30:38.904Z,69.20
2018-04-25T06:33:06.400Z,69.30
2018-04-25T06:35:34.540Z,69.40
2018-04-25T06:38:02.004Z,69.30
2018-04-25T06:40:29.448Z,69.40
2018-04-25T06:42:56.908Z,69.30
2018-04-25T06:45:24.494Z,69.10
2018-04-25T06:47:52.057Z,68.80
2018-04-25T06:50:19.524Z,69.10
2018-04-25T06:52:47.083Z,68.90
2018-04-25T06:55:14.545Z,68.20
2018-04-25T06:57:42.109Z,68.60
2018-04-25T07:00:09.674Z,67.90
2018-04-25T07:02:37.200Z,67.70
2018-04-25T07:05:04.664Z,67.40
2018-04-25T07:07:32.146Z,67.20
2018-04-25T07:09:59.752Z,67.00
2018-04-25T07:12:27.314Z,66.60
2018-04-25T07:14:55.163Z,65.80
2018-04-25T07:17:22.724Z,65.80
2018-04-25T07:19:50.194Z,65.60
2018-04-25T07:22:17.714Z,64.70
2018-04-25T07:24:45.180Z,65.30
2018-04-25T07:27:12.646Z,65.10
2018-04-25T07:29:40.143Z,65.30
2018-04-25T07:32:07.620Z,65.30
2018-04-25T07:34:35.137Z,65.30
2018-04-25T07:37:02.637Z,65.30
2018-04-25T07:39:30.181Z,65.30
2018-04-25T07:41:57.670Z,65.40
2018-04-25T07:44:25.294Z,65.70
2018-04-25T07:46:52.740Z,65.40
2018-04-25T07:49:20.200Z,65.50
2018-04-25T07:51:47.670Z,65.30
2018-04-25T07:54:15.130Z,65.50
2018-04-25T07:56:42.588Z,65.60
2018-04-25T07:59:10.675Z,65.10
2018-04-25T08:01:38.131Z,64.50
2018-04-25T08:04:05.591Z,64.40
2018-04-25T08:06:33.049Z,64.70
2018-04-25T08:09:00.519Z,65.10
2018-04-25T08:11:28.032Z,64.50
2018-04-25T08:14:07.962Z,64.10
2018-04-25T08:16:47.403Z,64.10
2018-04-25T08:19:26.947Z,64.00
2018-04-25T08:21:54.459Z,63.80
2018-04-25T08:24:21.919Z,63.50
2018-04-25T08:26:49.425Z,63.60
2018-04-25T08:29:16.893Z,63.50
2018-04-25T08:31:44.778Z,63.50
2018-04-25T08:34:13.352Z,63.50
2018-04-25T08:36:41.318Z,62.50
2018-04-25T08:39:08.906Z,62.50
2018-04-25T08:41:36.855Z,62.10
2018-04-25T08:44:04.342Z,62.00
2018-04-25T08:46:32.263Z,62.50
2018-04-25T08:48:59.753Z,62.50
2018-04-25T08:51:28.185Z,62.20
2018-04-25T08:53:55.694Z,62.80
2018-04-25T08:56:23.197Z,62.00
2018-04-25T08:58:51.069Z,61.70
2018-04-25T09:01:19.019Z,61.40
2018-04-25T09:03:46.492Z,61.40
2018-04-25T09:06:14.374Z,61.30
2018-04-25T09:08:41.844Z,61.30
2018-04-25T09:11:09.470Z,61.00
2018-04-25T09:13:36.954Z,59.90
2018-04-25T09:16:04.816Z,59.40
2018-04-25T09:18:32.283Z,59.40
2018-04-25T09:21:00.160Z,60.00
2018-04-25T09:23:27.695Z,60.10
2018-04-25T09:25:55.188Z,60.10
2018-04-25T09:28:23.053Z,60.20
2018-04-25T09:30:50.904Z,59.80
2018-04-25T09:33:18.455Z,59.80
2018-04-25T09:35:45.924Z,58.70
2018-04-25T09:38:13.381Z,58.40
2018-04-25T09:40:40.939Z,58.50
2018-04-25T09:43:08.403Z,58.50
2018-04-25T09:45:35.861Z,58.60
2018-04-25T09:48:03.876Z,58.80
2018-04-25T09:50:31.750Z,59.20
2018-04-25T09:52:59.616Z,59.20
2018-04-25T09:55:27.477Z,59.90
2018-04-25T09:57:55.038Z,59.90
2018-04-25T10:00:22.840Z,58.40
2018-04-25T10:02:56.399Z,58.40
2018-04-25T10:05:24.300Z,58.50
2018-04-25T10:07:52.163Z,58.90
2018-04-25T10:10:19.662Z,58.90
2018-04-25T10:12:47.253Z,59.00
2018-04-25T10:15:14.870Z,59.70
2018-04-25T10:17:42.658Z,60.10
2018-04-25T10:20:10.227Z,60.20
2018-04-25T10:22:37.720Z,60.30
2018-04-25T10:25:05.660Z,60.20
2018-04-25T10:27:33.144Z,60.30
2018-04-25T10:30:00.613Z,60.60
2018-04-25T10:32:28.103Z,60.80
2018-04-25T10:34:55.674Z,60.60
2018-04-25T10:37:23.268Z,60.40
2018-04-25T10:39:51.250Z,60.20
2018-04-25T10:42:19.709Z,60.20
2018-04-25T10:44:47.884Z,60.40
2018-04-25T10:47:15.848Z,59.70
2018-04-25T10:49:43.371Z,59.70
2018-04-25T10:52:10.861Z,59.70
2018-04-25T10:54:38.331Z,59.90
2018-04-25T10:57:05.810Z,60.30
2018-04-25T10:59:34.336Z,61.10
2018-04-25T11:02:02.048Z,61.10
2018-04-25T11:04:29.520Z,60.70
2018-04-25T11:06:56.975Z,60.70
2018-04-25T11:09:24.533Z,60.10
2018-04-25T11:11:51.995Z,59.30
2018-04-25T11:14:19.504Z,59.90
2018-04-25T11:16:47.031Z,60.30
2018-04-25T11:19:14.594Z,60.30
2018-04-25T11:21:42.063Z,60.30
2018-04-25T11:24:09.942Z,60.40
2018-04-25T11:26:37.477Z,60.40
2018-04-25T11:29:04.939Z,60.20
2018-04-25T11:31:32.410Z,59.80
2018-04-25T11:34:00.391Z,60.30
2018-04-25T11:36:27.852Z,61.10
2018-04-25T11:38:55.833Z,60.90
2018-04-25T11:41:23.688Z,61.40
2018-04-25T11:43:51.159Z,61.40
2018-04-25T11:46:18.622Z,60.70
2018-04-25T11:48:46.484Z,60.90
2018-04-25T11:51:14.401Z,60.90
2018-04-25T11:53:41.983Z,60.80
2018-04-25T11:56:09.481Z,60.90
2018-04-25T11:58:37.547Z,60.90
2018-04-25T12:01:05.130Z,60.90
2018-04-25T12:03:32.633Z,61.10
2018-04-25T12:06:00.245Z,60.70
2018-04-25T12:08:27.721Z,61.10
2018-04-25T12:10:55.280Z,62.30
2018-04-25T12:13:22.772Z,64.90
2018-04-25T12:15:50.259Z,65.70
2018-04-25T12:18:17.721Z,66.00
2018-04-25T12:20:45.183Z,66.20
2018-04-25T12:23:12.710Z,65.80
2018-04-25T12:25:40.166Z,65.80
2018-04-25T12:28:08.087Z,66.30
2018-04-25T12:30:35.544Z,66.30
2018-04-25T12:33:03.007Z,66.20
2018-04-25T12:35:30.463Z,66.00
2018-04-25T12:37:57.923Z,67.60
2018-04-25T12:40:25.435Z,67.20
2018-04-25T12:42:52.908Z,65.80
2018-04-25T12:45:20.800Z,65.60
2018-04-25T12:47:48.646Z,64.00
2018-04-25T12:50:16.136Z,64.00
2018-04-25T12:52:43.783Z,62.50
2018-04-25T12:55:11.240Z,59.90
2018-04-25T12:57:38.799Z,59.70
2018-04-25T13:00:06.259Z,58.70
2018-04-25T13:02:33.777Z,56.60
2018-04-25T13:05:01.300Z,56.80
2018-04-25T13:07:29.160Z,56.80
2018-04-25T13:09:56.619Z,56.80
2018-04-25T13:12:24.108Z,56.20
2018-04-25T13:14:51.584Z,55.70
2018-04-25T13:17:20.457Z,55.10
2018-04-25T13:19:48.329Z,55.60
2018-04-25T13:22:16.287Z,54.30
2018-04-25T13:24:43.847Z,54.30
2018-04-25T13:27:11.305Z,53.60
2018-04-25T13:29:38.854Z,54.70
2018-04-25T13:32:06.318Z,53.90
2018-04-25T13:34:33.770Z,53.00
2018-04-25T13:37:01.245Z,51.20
2018-04-25T13:39:28.690Z,52.10
2018-04-25T13:41:56.219Z,51.40
2018-04-25T13:44:23.729Z,51.30
2018-04-25T13:46:51.283Z,51.40
2018-04-25T13:49:18.692Z,51.00
2018-04-25T13:51:46.643Z,51.00
2018-04-25T13:54:14.927Z,51.00
2018-04-25T13:56:42.541Z,49.70
2018-04-25T13:59:10.092Z,50.30
2018-04-25T14:01:37.621Z,50.80
2018-04-25T14:04:05.094Z,50.10
2018-04-25T14:06:32.749Z,50.60
2018-04-25T14:09:00.216Z,50.90
2018-04-25T14:11:27.729Z,51.00
2018-04-25T14:13:55.194Z,52.60
2018-04-25T14:16:22.678Z,51.80
2018-04-25T14:18:50.206Z,51.60
2018-04-25T14:21:17.671Z,50.90
2018-04-25T14:23:45.440Z,51.10
2018-04-25T14:26:12.998Z,50.60
2018-04-25T14:28:40.515Z,50.40
2018-04-25T14:31:08.095Z,49.40
2018-04-25T14:33:35.576Z,49.60
2018-04-25T14:36:03.437Z,50.60
2018-04-25T14:38:31.293Z,50.50
2018-04-25T14:40:58.750Z,50.50
2018-04-25T14:43:26.320Z,49.70
2018-04-25T14:45:53.885Z,50.00
2018-04-25T14:48:21.378Z,50.20
2018-04-25T14:50:49.242Z,50.70
2018-04-25T14:53:17.084Z,51.50
2018-04-25T14:55:44.959Z,51.50
2018-04-25T14:58:12.424Z,51.90
2018-04-25T15:00:39.880Z,52.00
2018-04-25T15:03:07.351Z,52.40
2018-04-25T15:05:34.818Z,53.40
2018-04-25T15:08:02.325Z,53.70
2018-04-25T15:10:29.779Z,54.30
2018-04-25T15:12:57.252Z,56.00
2018-04-25T15:15:24.708Z,57.50
2018-04-25T15:17:52.167Z,58.90
2018-04-25T15:20:19.727Z,60.20
2018-04-25T15:22:47.242Z,61.70
2018-04-25T15:25:14.729Z,62.70
2018-04-25T15:27:42.603Z,63.40
2018-04-25T15:30:10.541Z,62.90
2018-04-25T15:32:38.053Z,62.90
2018-04-25T15:35:05.565Z,63.10
2018-04-25T15:37:33.035Z,63.50
2018-04-25T15:40:00.620Z,63.90
2018-04-25T15:42:28.580Z,66.90
2018-04-25T15:44:56.077Z,66.90
2018-04-25T15:47:23.549Z,67.00
2018-04-25T15:49:51.332Z,67.20
2018-04-25T15:52:18.827Z,67.20
2018-04-25T15:54:46.397Z,67.90
2018-04-25T15:57:14.367Z,67.50
2018-04-25T15:59:41.809Z,67.20
2018-04-25T16:02:09.702Z,67.20
2018-04-25T16:04:37.684Z,66.70
2018-04-25T16:07:05.252Z,66.70
2018-04-25T16:09:32.808Z,66.10
2018-04-25T16:12:00.395Z,66.10
2018-04-25T16:14:28.508Z,65.60
2018-04-25T16:16:56.588Z,65.60
2018-04-25T16:19:24.550Z,65.50
2018-04-25T16:21:52.078Z,65.80
2018-04-25T16:24:20.060Z,65.50
2018-04-25T16:26:47.928Z,66.10
2018-04-25T16:29:16.208Z,65.90
2018-04-25T16:31:43.724Z,65.90
2018-04-25T16:34:11.190Z,65.70
2018-04-25T16:36:38.675Z,65.80
2018-04-25T16:39:06.163Z,65.80
2018-04-25T16:41:34.059Z,65.70
2018-04-25T16:44:01.509Z,65.70
2018-04-25T16:46:29.140Z,65.60
2018-04-25T16:48:56.707Z,65.30
2018-04-25T16:51:24.194Z,65.50
2018-04-25T16:53:52.162Z,65.80
2018-04-25T16:56:20.068Z,65.80
2018-04-25T16:58:47.528Z,65.80
2018-04-25T17:01:14.993Z,65.70
2018-04-25T17:03:42.490Z,65.80
2018-04-25T17:06:09.952Z,66.00
2018-04-25T17:11:11.417Z,66.30
2018-04-25T17:13:38.871Z,66.50
2018-04-25T17:16:06.486Z,66.50
2018-04-25T17:18:34.359Z,66.50
2018-04-25T17:21:02.468Z,66.40
2018-04-25T17:23:30.308Z,66.40
2018-04-25T17:25:58.164Z,66.70
2018-04-25T17:28:25.712Z,66.70
2018-04-25T17:30:53.181Z,66.90
2018-04-25T17:33:20.891Z,67.20
2018-04-25T17:35:48.387Z,67.30
2018-04-25T17:38:15.859Z,67.30
2018-04-25T17:40:43.332Z,67.40
2018-04-25T17:43:10.780Z,67.50
2018-04-25T17:45:38.267Z,67.80
2018-04-25T17:48:05.779Z,68.00
2018-04-25T17:50:33.251Z,68.20
2018-04-25T17:53:01.776Z,68.50
2018-04-25T17:55:29.335Z,68.30
2018-04-25T17:57:56.898Z,68.20
2018-04-25T18:00:24.394Z,68.10
2018-04-25T18:02:52.324Z,68.10
2018-04-25T18:05:19.801Z,68.10
2018-04-25T18:07:47.269Z,67.90
2018-04-25T18:10:14.757Z,67.80
2018-04-25T18:12:42.292Z,67.70
2018-04-25T18:15:09.909Z,67.50
2018-04-25T18:17:37.453Z,67.40
2018-04-25T18:20:04.905Z,67.40
2018-04-25T18:22:32.441Z,67.20
2018-04-25T18:25:00.451Z,67.00
2018-04-25T18:27:27.943Z,66.80
2018-04-25T18:29:55.457Z,66.70
2018-04-25T18:32:23.416Z,66.40
2018-04-25T18:34:50.904Z,66.40
2018-04-25T18:37:18.910Z,66.30
2018-04-25T18:39:46.351Z,66.30
2018-04-25T18:42:13.819Z,66.20
2018-04-25T18:44:42.247Z,66.10
2018-04-25T18:47:10.484Z,66.20
2018-04-25T18:49:38.048Z,66.20
2018-04-25T18:52:05.567Z,66.40
2018-04-25T18:54:33.050Z,66.50
2018-04-25T18:57:00.932Z,66.40
2018-04-25T18:59:29.418Z,66.40
2018-04-25T19:01:57.697Z,66.40
2018-04-25T19:04:25.583Z,66.40
2018-04-25T19:06:53.112Z,66.40
2018-04-25T19:09:21.126Z,66.30
2018-04-25T19:11:48.652Z,66.40
2018-04-25T19:14:16.174Z,66.40
2018-04-25T19:16:43.667Z,66.50
2018-04-25T19:19:11.242Z,66.70
2018-04-25T19:21:39.051Z,66.80
2018-04-25T19:24:07.543Z,67.10
2018-04-25T19:26:35.140Z,67.60
2018-04-25T19:29:02.985Z,67.80
2018-04-25T19:31:30.697Z,68.00
2018-04-25T19:33:58.615Z,68.00
2018-04-25T19:36:26.154Z,68.00
2018-04-25T19:38:53.634Z,67.90
2018-04-25T19:41:21.136Z,67.40
2018-04-25T19:43:48.734Z,67.40
2018-04-25T19:46:16.703Z,67.40
2018-04-25T19:48:44.559Z,67.20
2018-04-25T19:51:12.110Z,67.20
2018-04-25T19:53:39.615Z,67.30
2018-04-25T19:56:07.562Z,67.40
2018-04-25T19:58:35.113Z,67.40
2018-04-25T20:01:02.598Z,67.20
2018-04-25T20:03:30.132Z,67.10
2018-04-25T20:05:57.627Z,67.00
2018-04-25T20:08:25.608Z,67.00
2018-04-25T20:10:53.610Z,67.00
2018-04-25T20:13:21.133Z,67.00
2018-04-25T20:15:48.659Z,67.00
2018-04-25T20:18:16.140Z,67.10
2018-04-25T20:20:43.943Z,66.90
2018-04-25T20:23:11.846Z,67.00
2018-04-25T20:25:39.462Z,66.80
2018-04-25T20:28:07.021Z,66.90
2018-04-25T20:30:34.488Z,66.70
2018-04-25T20:33:01.955Z,66.70
2018-04-25T20:35:29.841Z,66.80
2018-04-25T20:37:57.309Z,66.80
2018-04-25T20:40:25.253Z,67.10
2018-04-25T20:42:52.822Z,67.10
2018-04-25T20:45:20.291Z,67.30
2018-04-25T20:47:47.848Z,67.40
2018-04-25T20:50:15.416Z,67.60
2018-04-25T20:52:42.924Z,67.70
2018-04-25T20:55:10.397Z,67.90
2018-04-25T20:57:37.899Z,67.90
2018-04-25T21:00:05.684Z,67.90
2018-04-25T21:02:33.274Z,68.00
2018-04-25T21:05:00.772Z,68.20
2018-04-25T21:07:28.260Z,68.50
2018-04-25T21:09:55.741Z,68.50
2018-04-25T21:12:23.215Z,68.70
2018-04-25T21:14:50.800Z,68.80
2018-04-25T21:17:18.322Z,68.80
2018-04-25T21:19:45.772Z,68.90
2018-04-25T21:22:13.339Z,69.10
2018-04-25T21:24:40.808Z,69.20
2018-04-25T21:27:08.276Z,69.30
2018-04-25T21:29:36.144Z,69.60
2018-04-25T21:32:04.045Z,69.80
2018-04-25T21:34:31.535Z,69.80
2018-04-25T21:36:59.020Z,70.00
2018-04-25T21:39:26.506Z,70.00
2018-04-25T21:41:54.428Z,70.10
2018-04-25T21:44:22.380Z,70.10
2018-04-25T21:46:49.856Z,70.10
2018-04-25T21:49:17.323Z,70.50
2018-04-25T21:51:44.812Z,70.60
2018-04-25T21:54:12.333Z,70.50
2018-04-25T21:56:39.806Z,70.50
2018-04-25T21:59:07.269Z,70.40
2018-04-25T22:01:34.743Z,70.30
2018-04-25T22:04:02.232Z,70.10
2018-04-25T22:06:29.761Z,70.20
2018-04-25T22:08:57.272Z,70.30
2018-04-25T22:11:25.762Z,70.10
2018-04-25T22:13:53.775Z,70.30
2018-04-25T22:16:21.239Z,70.30
2018-04-25T22:18:48.722Z,70.20
2018-04-25T22:21:16.197Z,70.00
2018-04-25T22:23:43.653Z,69.90
2018-04-25T22:26:11.127Z,70.00
2018-04-25T22:28:38.593Z,70.00
2018-04-25T22:31:06.114Z,69.70
2018-04-25T22:33:35.558Z,69.70
2018-04-25T22:36:03.044Z,69.50
2018-04-25T22:38:30.909Z,68.60
2018-04-25T22:40:58.357Z,68.60
2018-04-25T22:43:25.897Z,68.40
2018-04-25T22:45:53.347Z,68.20
2018-04-25T22:48:20.805Z,67.70
2018-04-25T22:50:48.258Z,67.20
2018-04-25T22:53:15.727Z,67.20
2018-04-25T22:55:43.345Z,66.70
2018-04-25T22:58:10.808Z,66.40
2018-04-25T23:00:38.283Z,66.30
2018-04-25T23:03:06.140Z,66.40
2018-04-25T23:05:34.099Z,66.40
2018-04-25T23:08:01.678Z,66.40
2018-04-25T23:10:29.221Z,66.40
2018-04-25T23:12:56.669Z,65.90
2018-04-25T23:15:24.122Z,65.90
2018-04-25T23:17:51.592Z,65.00
2018-04-25T23:20:19.604Z,65.30
2018-04-25T23:22:47.486Z,65.00
2018-04-25T23:25:15.358Z,64.30
2018-04-25T23:27:43.331Z,64.00
2018-04-25T23:30:11.229Z,63.70
2018-04-25T23:32:38.757Z,63.70
2018-04-25T23:35:06.356Z,63.50
2018-04-25T23:37:33.873Z,63.30
2018-04-25T23:40:01.386Z,63.40
2018-04-25T23:42:28.924Z,63.70
2018-04-25T23:44:56.895Z,63.10
2018-04-25T23:47:24.778Z,63.50
2018-04-25T23:49:52.669Z,63.60
2018-04-25T23:52:20.303Z,63.60
2018-04-25T23:54:48.162Z,63.50
2018-04-25T23:57:15.663Z,63.50
2018-04-25T23:59:43.139Z,62.90
